Fahri Eksioglu — TCUH — position and weather

sailwx.info

Track history (hours):
 
Tides and Currents Weather Stations Pressure Air Temp Water Temp Dewpoint Dewpoint Depression Visibility Wind Speed Wind Dir Waves Ship Positions

Fahri Eksioglu

Last reported at 2017-Jan-18 16:31 UTC. Time now 2017-Jan-20 09:56 UTC.
Position N 37°46' E 024°21'.

Length 87 m; draft 3.8 m.

Type: Cargo ship. MMSI: 271000450.

Date/timePositionNaut miles runAvg speedWind from/ knotsBaromVisibWave heightAir tempDewpointWater temp
2017-Jan-18 16:31N 37°46' E 024°21'1410.1
2017-Jan-18 15:10N 37°38' E 024°07'6 9.8
2017-Jan-18 14:30N 37°37' E 023°59'10 9.5
2017-Jan-18 13:30N 37°38' E 023°47'9 9.3
2017-Jan-18 12:33N 37°44' E 023°40'9 9.2
2017-Jan-18 11:33N 37°50' E 023°31'1111.0
2017-Jan-18 10:34N 37°52' E 023°17'10 9.6
2017-Jan-18 09:34N 37°54' E 023°05'3 0.6
2017-Jan-18 03:27N 37°55' E 023°01'0 0.0
2017-Jan-18 02:33N 37°55' E 023°01'0 0.0
2017-Jan-18 01:28N 37°55' E 023°01'0 0.0
2017-Jan-18 00:33N 37°55' E 023°01'0 0.0
2017-Jan-17 23:32N 37°55' E 023°01'0 0.0
2017-Jan-17 22:29N 37°55' E 023°01'0 0.0
2017-Jan-17 21:14N 37°55' E 023°01'0 0.0
2017-Jan-17 20:29N 37°55' E 023°01'0 0.0
2017-Jan-17 18:19N 37°55' E 023°01'0 0.0
2017-Jan-17 17:26N 37°55' E 023°01'0 0.0
2017-Jan-17 16:27N 37°55' E 023°01'0 0.0
2017-Jan-17 09:29N 37°55' E 023°01'0 0.0
2017-Jan-17 08:31N 37°55' E 023°01'0 0.0
2017-Jan-17 07:33N 37°55' E 023°01'0 0.0
2017-Jan-17 06:33N 37°55' E 023°01'0 0.0
2017-Jan-17 05:33N 37°55' E 023°01'3 3.3
2017-Jan-17 04:33N 37°53' E 023°05'4 4.4
2017-Jan-17 03:34N 37°53' E 023°10'7 6.8
2017-Jan-17 02:33N 37°52' E 023°19'8 8.1
2017-Jan-17 01:33N 37°51' E 023°29'9 8.9
2017-Jan-17 00:33N 37°48' E 023°40'10 9.7
2017-Jan-16 23:33N 37°40' E 023°46'  
2017-Jan-12 14:09N 46°21' E 030°38'  
Track history (hours):
 
Tides and Currents Weather Stations Pressure Air Temp Water Temp Dewpoint Dewpoint Depression Visibility Wind Speed Wind Dir Waves Ship Positions

Fahri Eksioglu

Last reported at 2017-Jan-18 16:31 UTC. Time now 2017-Jan-20 09:56 UTC.
Position N 37°46' E 024°21'.

Length 87 m; draft 3.8 m.

Type: Cargo ship. MMSI: 271000450.

Date/timePositionNaut miles runAvg speedWind from/ knotsBaromVisibWave heightAir tempDewpointWater temp
2017-Jan-18 16:31N 37°46' E 024°21'1410.1
2017-Jan-18 15:10N 37°38' E 024°07'6 9.8
2017-Jan-18 14:30N 37°37' E 023°59'10 9.5
2017-Jan-18 13:30N 37°38' E 023°47'9 9.3
2017-Jan-18 12:33N 37°44' E 023°40'9 9.2
2017-Jan-18 11:33N 37°50' E 023°31'1111.0
2017-Jan-18 10:34N 37°52' E 023°17'10 9.6
2017-Jan-18 09:34N 37°54' E 023°05'3 0.6
2017-Jan-18 03:27N 37°55' E 023°01'0 0.0
2017-Jan-18 02:33N 37°55' E 023°01'0 0.0
2017-Jan-18 01:28N 37°55' E 023°01'0 0.0
2017-Jan-18 00:33N 37°55' E 023°01'0 0.0
2017-Jan-17 23:32N 37°55' E 023°01'0 0.0
2017-Jan-17 22:29N 37°55' E 023°01'0 0.0
2017-Jan-17 21:14N 37°55' E 023°01'0 0.0
2017-Jan-17 20:29N 37°55' E 023°01'0 0.0
2017-Jan-17 18:19N 37°55' E 023°01'0 0.0
2017-Jan-17 17:26N 37°55' E 023°01'0 0.0
2017-Jan-17 16:27N 37°55' E 023°01'0 0.0
2017-Jan-17 09:29N 37°55' E 023°01'0 0.0
2017-Jan-17 08:31N 37°55' E 023°01'0 0.0
2017-Jan-17 07:33N 37°55' E 023°01'0 0.0
2017-Jan-17 06:33N 37°55' E 023°01'0 0.0
2017-Jan-17 05:33N 37°55' E 023°01'3 3.3
2017-Jan-17 04:33N 37°53' E 023°05'4 4.4
2017-Jan-17 03:34N 37°53' E 023°10'7 6.8
2017-Jan-17 02:33N 37°52' E 023°19'8 8.1
2017-Jan-17 01:33N 37°51' E 023°29'9 8.9
2017-Jan-17 00:33N 37°48' E 023°40'10 9.7
2017-Jan-16 23:33N 37°40' E 023°46'  
2017-Jan-12 14:09N 46°21' E 030°38'  

Dump ship's entire track history